createdAt,value
2022-10-29T00:00:30.827Z,21.33
2022-10-29T00:03:33.360Z,22.67
2022-10-29T00:06:35.611Z,22.33
2022-10-29T00:09:38.237Z,22.20
2022-10-29T00:12:40.501Z,22.60
2022-10-29T00:15:43.044Z,21.27
2022-10-29T00:18:45.971Z,22.10
2022-10-29T00:21:50.980Z,19.50
2022-10-29T00:24:53.223Z,18.87
2022-10-29T00:27:58.966Z,19.57
2022-10-29T00:31:15.200Z,19.25
2022-10-29T00:34:17.728Z,19.50
2022-10-29T00:37:19.937Z,19.27
2022-10-29T00:40:22.512Z,19.52
2022-10-29T00:43:26.569Z,18.63
2022-10-29T00:46:35.461Z,19.73
2022-10-29T00:49:41.182Z,20.77
2022-10-29T00:52:47.335Z,19.75
2022-10-29T00:55:49.922Z,20.25
2022-10-29T00:58:52.811Z,19.00
2022-10-29T01:01:56.157Z,18.35
2022-10-29T01:05:00.593Z,18.30
2022-10-29T01:08:04.013Z,19.65
2022-10-29T01:11:43.641Z,19.60
2022-10-29T01:15:04.513Z,20.27
2022-10-29T01:18:07.004Z,18.87
2022-10-29T01:21:18.173Z,20.20
2022-10-29T01:24:42.804Z,18.67
2022-10-29T01:28:06.641Z,19.55
2022-10-29T01:31:24.051Z,21.70
2022-10-29T01:34:47.874Z,22.52
2022-10-29T01:38:11.189Z,21.80
2022-10-29T01:41:50.637Z,22.77
2022-10-29T01:44:58.674Z,21.45
2022-10-29T01:48:07.234Z,22.37
2022-10-29T01:51:19.083Z,21.50
2022-10-29T01:54:21.477Z,21.17
2022-10-29T01:57:37.161Z,22.08
2022-10-29T02:01:18.758Z,21.42
2022-10-29T02:05:02.469Z,21.83
2022-10-29T02:08:23.362Z,23.67
2022-10-29T02:12:06.325Z,23.30
2022-10-29T02:15:17.980Z,24.55
2022-10-29T02:18:20.711Z,23.58
2022-10-29T02:21:22.912Z,24.17
2022-10-29T02:24:25.818Z,24.15
2022-10-29T02:27:28.098Z,23.23
2022-10-29T02:30:30.712Z,22.95
2022-10-29T02:33:33.195Z,22.42
2022-10-29T02:36:35.777Z,23.77
2022-10-29T02:39:38.027Z,22.10
2022-10-29T02:42:40.514Z,23.65
2022-10-29T02:45:42.743Z,23.17
2022-10-29T02:48:45.647Z,25.30
2022-10-29T02:51:47.921Z,23.53
2022-10-29T02:54:51.144Z,20.52
2022-10-29T02:57:53.627Z,23.17
2022-10-29T03:00:56.681Z,23.52
2022-10-29T03:03:59.151Z,23.15
2022-10-29T03:07:03.172Z,22.43
2022-10-29T03:10:07.089Z,24.25
2022-10-29T03:13:09.657Z,23.35
2022-10-29T03:16:12.023Z,24.42
2022-10-29T03:19:14.542Z,23.15
2022-10-29T03:22:16.841Z,23.23
2022-10-29T03:25:19.337Z,22.90
2022-10-29T03:28:23.193Z,22.95
2022-10-29T03:31:52.262Z,21.92
2022-10-29T03:34:57.462Z,22.35
2022-10-29T03:38:02.445Z,21.13
2022-10-29T03:41:10.240Z,21.50
2022-10-29T03:44:12.742Z,23.48
2022-10-29T03:47:14.996Z,22.67
2022-10-29T03:50:17.683Z,23.40
2022-10-29T03:53:19.879Z,25.10
2022-10-29T03:56:22.403Z,24.42
2022-10-29T03:59:24.718Z,21.55
2022-10-29T04:02:27.739Z,21.00
2022-10-29T04:05:30.295Z,22.55
2022-10-29T04:08:32.877Z,21.93
2022-10-29T04:11:35.298Z,20.27
2022-10-29T04:14:42.757Z,20.85
2022-10-29T04:17:51.046Z,20.23
2022-10-29T04:28:41.485Z,20.50
2022-10-29T04:31:10.966Z,19.73
2022-10-29T04:34:13.321Z,19.30
2022-10-29T04:37:15.772Z,21.87
2022-10-29T04:40:18.032Z,20.83
2022-10-29T04:43:20.512Z,20.45
2022-10-29T04:46:22.700Z,21.08
2022-10-29T04:49:25.301Z,20.25
2022-10-29T04:52:27.593Z,20.80
2022-10-29T04:55:30.219Z,20.77
2022-10-29T04:58:32.439Z,20.98
2022-10-29T05:04:38.170Z,21.45
2022-10-29T05:07:40.718Z,20.27
2022-10-29T05:10:42.927Z,20.60
2022-10-29T05:13:45.513Z,20.05
2022-10-29T05:16:47.744Z,20.55
2022-10-29T05:19:50.223Z,20.37
2022-10-29T05:23:04.341Z,21.02
2022-10-29T05:26:06.874Z,20.33
2022-10-29T05:29:09.133Z,19.98
2022-10-29T05:32:11.650Z,19.62
2022-10-29T05:35:13.932Z,21.08
2022-10-29T05:38:17.153Z,20.15
2022-10-29T05:41:19.394Z,21.63
2022-10-29T05:44:21.884Z,20.05
2022-10-29T05:47:24.188Z,20.65
2022-10-29T05:50:27.722Z,19.20
2022-10-29T05:53:30.002Z,19.12
2022-10-29T05:56:32.495Z,18.70
2022-10-29T05:59:34.710Z,19.08
2022-10-29T06:02:37.229Z,17.75
2022-10-29T06:05:40.133Z,19.17
2022-10-29T06:08:42.431Z,20.40
2022-10-29T06:11:44.909Z,20.37
2022-10-29T06:14:47.161Z,20.20
2022-10-29T06:17:50.310Z,20.65
2022-10-29T06:20:54.227Z,20.58
2022-10-29T06:23:56.698Z,23.48
2022-10-29T06:26:58.926Z,22.00
2022-10-29T06:30:01.543Z,22.35
2022-10-29T06:33:05.159Z,22.80
2022-10-29T06:36:08.068Z,21.25
2022-10-29T06:39:10.320Z,20.73
2022-10-29T06:42:12.883Z,20.50
2022-10-29T06:45:15.840Z,19.83
2022-10-29T06:48:21.979Z,20.55
2022-10-29T06:51:24.750Z,19.42
2022-10-29T06:54:27.250Z,18.55
2022-10-29T06:57:29.777Z,19.27
2022-10-29T07:00:33.834Z,18.98
2022-10-29T07:03:36.200Z,19.52
2022-10-29T07:06:38.776Z,17.80
2022-10-29T07:09:42.855Z,19.60
2022-10-29T07:12:45.642Z,19.03
2022-10-29T07:15:47.895Z,17.90
2022-10-29T07:18:50.420Z,17.40
2022-10-29T07:21:52.803Z,17.73
2022-10-29T07:24:58.562Z,19.27
2022-10-29T07:28:10.595Z,19.87
2022-10-29T07:31:13.141Z,19.17
2022-10-29T07:34:15.381Z,19.40
2022-10-29T07:37:17.930Z,19.98
2022-10-29T07:40:20.232Z,20.37
2022-10-29T07:43:23.275Z,18.37
2022-10-29T07:46:25.538Z,19.77
2022-10-29T07:49:28.091Z,20.23
2022-10-29T07:52:30.441Z,19.87
2022-10-29T07:55:33.151Z,19.10
2022-10-29T07:58:36.196Z,18.90
2022-10-29T08:01:39.013Z,19.80
2022-10-29T08:04:41.583Z,20.33
2022-10-29T08:07:43.818Z,19.30
2022-10-29T08:11:01.628Z,20.15
2022-10-29T08:14:04.180Z,19.80
2022-10-29T08:17:06.672Z,21.12
2022-10-29T08:20:09.976Z,22.25
2022-10-29T08:23:13.561Z,22.08
2022-10-29T08:26:16.085Z,24.52
2022-10-29T08:29:18.681Z,21.83
2022-10-29T08:32:20.922Z,21.42
2022-10-29T08:35:23.545Z,20.92
2022-10-29T08:38:25.914Z,20.40
2022-10-29T08:41:40.600Z,20.55
2022-10-29T08:45:02.026Z,24.33
2022-10-29T08:48:10.659Z,22.85
2022-10-29T08:51:36.967Z,22.92
2022-10-29T08:54:43.511Z,22.00
2022-10-29T08:58:03.535Z,21.98
2022-10-29T09:01:11.305Z,22.80
2022-10-29T09:04:22.677Z,21.30
2022-10-29T09:07:44.019Z,21.27
2022-10-29T09:10:54.056Z,20.92
2022-10-29T09:14:18.074Z,21.67
2022-10-29T09:17:31.066Z,21.43
2022-10-29T09:20:42.841Z,21.98
2022-10-29T09:24:39.012Z,22.65
2022-10-29T09:27:56.677Z,23.45
2022-10-29T09:31:04.466Z,22.83
2022-10-29T09:34:18.048Z,22.63
2022-10-29T09:37:33.824Z,22.65
2022-10-29T09:40:39.036Z,23.73
2022-10-29T09:44:03.565Z,21.90
2022-10-29T09:47:21.096Z,20.92
2022-10-29T09:50:41.334Z,21.73
2022-10-29T09:53:44.265Z,20.05
2022-10-29T09:56:51.850Z,22.55
2022-10-29T10:00:02.146Z,25.33
2022-10-29T10:03:22.035Z,25.20
2022-10-29T10:06:24.614Z,25.80
2022-10-29T10:09:26.840Z,24.27
2022-10-29T10:12:45.411Z,24.83
2022-10-29T10:15:53.965Z,24.40
2022-10-29T10:18:56.514Z,24.08
2022-10-29T10:22:05.327Z,22.17
2022-10-29T10:25:35.562Z,23.08
2022-10-29T10:28:37.946Z,24.85
2022-10-29T10:31:41.879Z,23.83
2022-10-29T10:34:44.438Z,23.42
2022-10-29T10:37:47.102Z,22.90
2022-10-29T10:41:01.046Z,22.27
2022-10-29T10:44:04.922Z,23.23
2022-10-29T10:47:07.558Z,25.30
2022-10-29T10:50:25.272Z,24.42
2022-10-29T10:53:27.784Z,25.63
2022-10-29T10:56:30.787Z,24.90
2022-10-29T11:00:00.482Z,24.45
2022-10-29T11:03:09.557Z,25.77
2022-10-29T11:06:28.557Z,26.98
2022-10-29T11:09:34.629Z,25.97
2022-10-29T11:12:46.535Z,27.02
2022-10-29T11:15:56.366Z,25.85
2022-10-29T11:19:05.758Z,22.67
2022-10-29T11:22:28.228Z,23.40
2022-10-29T11:25:56.455Z,24.10
2022-10-29T11:29:22.594Z,25.15
2022-10-29T11:32:40.763Z,23.98
2022-10-29T11:36:00.600Z,22.30
2022-10-29T11:39:37.525Z,22.87
2022-10-29T11:42:40.989Z,22.47
2022-10-29T11:46:06.396Z,20.92
2022-10-29T11:49:24.862Z,21.45
2022-10-29T11:52:36.044Z,19.87
2022-10-29T11:55:53.778Z,20.23
2022-10-29T11:59:21.686Z,19.40
2022-10-29T12:02:47.241Z,18.35
2022-10-29T12:06:11.644Z,20.20
2022-10-29T12:09:42.855Z,18.00
2022-10-29T12:12:54.858Z,18.85
2022-10-29T12:16:06.734Z,17.87
2022-10-29T12:19:14.576Z,19.27
2022-10-29T12:22:47.479Z,19.30
2022-10-29T12:26:02.263Z,20.73
2022-10-29T12:29:21.474Z,19.23
2022-10-29T12:32:55.420Z,17.83
2022-10-29T12:36:05.122Z,20.60
2022-10-29T12:39:18.967Z,21.62
2022-10-29T12:42:30.423Z,19.70
2022-10-29T12:45:39.924Z,18.65
2022-10-29T12:49:07.456Z,20.27
2022-10-29T12:52:27.743Z,20.48
2022-10-29T12:55:31.897Z,21.92
2022-10-29T12:58:59.673Z,20.40
2022-10-29T13:02:38.968Z,21.00
2022-10-29T13:05:43.729Z,21.80
2022-10-29T13:08:55.774Z,21.92
2022-10-29T13:12:09.794Z,22.23
2022-10-29T13:15:15.598Z,22.48
2022-10-29T13:18:24.033Z,22.83
2022-10-29T13:21:55.992Z,22.80
2022-10-29T13:25:38.801Z,22.50
2022-10-29T13:28:40.936Z,21.35
2022-10-29T13:31:47.094Z,19.92
2022-10-29T13:34:51.572Z,21.73
2022-10-29T13:38:16.098Z,21.60
2022-10-29T13:41:22.067Z,21.52
2022-10-29T13:44:27.011Z,21.35
2022-10-29T13:47:29.477Z,22.70
2022-10-29T13:50:34.542Z,22.85
2022-10-29T13:53:51.174Z,21.47
2022-10-29T13:56:59.748Z,21.45
2022-10-29T14:00:06.941Z,19.48
2022-10-29T14:03:21.817Z,21.52
2022-10-29T14:06:31.296Z,21.05
2022-10-29T14:09:46.206Z,21.63
2022-10-29T14:12:51.305Z,21.30
2022-10-29T14:16:06.152Z,19.95
2022-10-29T14:19:20.337Z,21.30
2022-10-29T14:22:31.616Z,20.02
2022-10-29T14:25:38.244Z,20.00
2022-10-29T14:28:40.840Z,21.65
2022-10-29T14:31:43.267Z,21.30
2022-10-29T14:34:49.218Z,19.80
2022-10-29T14:37:59.414Z,19.95
2022-10-29T14:41:02.357Z,20.30
2022-10-29T14:44:07.450Z,20.05
2022-10-29T14:47:29.003Z,20.15
2022-10-29T14:50:35.262Z,19.52
2022-10-29T14:53:40.794Z,17.60
2022-10-29T14:56:43.781Z,18.50
2022-10-29T14:59:50.363Z,19.15
2022-10-29T15:02:55.010Z,18.98
2022-10-29T15:06:21.200Z,21.52
2022-10-29T15:09:28.093Z,19.80
2022-10-29T15:12:38.482Z,20.33
2022-10-29T15:15:52.243Z,19.12
2022-10-29T15:18:57.172Z,19.33
2022-10-29T15:21:59.474Z,18.30
2022-10-29T15:25:05.086Z,19.55
2022-10-29T15:28:14.196Z,18.33
2022-10-29T15:31:22.327Z,19.55
2022-10-29T15:34:52.799Z,18.15
2022-10-29T15:37:56.744Z,19.10
2022-10-29T15:41:08.204Z,20.27
2022-10-29T15:44:29.525Z,20.93
2022-10-29T15:47:31.842Z,19.55
2022-10-29T15:50:43.225Z,21.17
2022-10-29T15:53:45.519Z,20.02
2022-10-29T15:56:49.185Z,20.33
2022-10-29T15:59:55.430Z,18.67
2022-10-29T16:03:06.529Z,19.40
2022-10-29T16:06:10.038Z,18.95
2022-10-29T16:09:19.609Z,19.37
2022-10-29T16:12:23.009Z,18.37
2022-10-29T16:18:32.939Z,19.58
2022-10-29T16:21:35.370Z,20.83
2022-10-29T16:24:37.939Z,20.15
2022-10-29T16:27:40.454Z,18.67
2022-10-29T16:30:43.997Z,20.27
2022-10-29T16:33:50.686Z,19.98
2022-10-29T16:36:53.188Z,19.05
2022-10-29T16:39:55.523Z,19.37
2022-10-29T16:42:58.676Z,18.37
2022-10-29T16:46:04.400Z,18.90
2022-10-29T16:49:08.141Z,18.17
2022-10-29T16:52:10.621Z,18.15
2022-10-29T16:55:13.687Z,17.50
2022-10-29T16:58:19.751Z,18.17
2022-10-29T17:04:29.612Z,17.87
2022-10-29T17:07:32.272Z,18.00
2022-10-29T17:10:35.732Z,18.42
2022-10-29T17:13:38.716Z,18.25
2022-10-29T17:16:41.313Z,18.50
2022-10-29T17:19:43.868Z,18.23
2022-10-29T17:22:46.908Z,18.08
2022-10-29T17:25:56.731Z,18.80
2022-10-29T17:28:58.969Z,19.23
2022-10-29T17:32:01.764Z,17.57
2022-10-29T17:35:04.533Z,19.00
2022-10-29T17:38:07.047Z,17.60
2022-10-29T17:41:09.579Z,18.27
2022-10-29T17:44:12.663Z,18.35
2022-10-29T17:47:15.633Z,17.87
2022-10-29T17:50:18.194Z,17.73
2022-10-29T17:53:21.133Z,19.77
2022-10-29T17:56:23.935Z,18.23
2022-10-29T17:59:26.185Z,18.02
2022-10-29T18:02:28.724Z,17.00
2022-10-29T18:05:31.384Z,18.52
2022-10-29T18:08:36.087Z,18.87
2022-10-29T18:11:38.656Z,21.30
2022-10-29T18:14:40.900Z,22.62
2022-10-29T18:17:43.970Z,23.40
2022-10-29T18:20:46.235Z,23.25
2022-10-29T18:23:48.820Z,23.58
2022-10-29T18:26:51.274Z,23.98
2022-10-29T18:29:53.817Z,25.88
2022-10-29T18:32:56.496Z,25.83
2022-10-29T18:35:59.382Z,25.60
2022-10-29T18:39:01.582Z,27.85
2022-10-29T18:42:04.294Z,29.90
2022-10-29T18:45:07.200Z,28.75
2022-10-29T18:48:09.869Z,27.27
2022-10-29T18:51:27.623Z,25.83
2022-10-29T18:54:30.310Z,25.62
2022-10-29T18:57:33.114Z,27.25
2022-10-29T19:00:35.788Z,26.17
2022-10-29T19:03:39.325Z,29.77
2022-10-29T19:06:42.043Z,28.70
2022-10-29T19:09:44.282Z,28.00
2022-10-29T19:12:46.850Z,30.05
2022-10-29T19:15:49.056Z,29.37
2022-10-29T19:18:59.676Z,28.13
2022-10-29T19:22:02.012Z,29.15
2022-10-29T19:25:04.973Z,29.90
2022-10-29T19:28:08.333Z,29.40
2022-10-29T19:31:13.818Z,28.77
2022-10-29T19:34:16.229Z,26.90
2022-10-29T19:37:18.743Z,27.58
2022-10-29T19:40:21.224Z,28.42
2022-10-29T19:43:29.203Z,28.50
2022-10-29T19:46:31.657Z,26.60
2022-10-29T19:49:34.208Z,26.20
2022-10-29T19:52:36.445Z,25.62
2022-10-29T19:55:42.418Z,24.05
2022-10-29T19:58:45.738Z,26.87
2022-10-29T20:01:48.738Z,28.17
2022-10-29T20:04:51.388Z,29.70
2022-10-29T20:07:55.579Z,29.50
2022-10-29T20:10:59.974Z,30.17
2022-10-29T20:14:02.193Z,28.45
2022-10-29T20:17:04.696Z,29.75
2022-10-29T20:20:08.269Z,28.10
2022-10-29T20:23:13.418Z,31.77
2022-10-29T20:26:15.785Z,30.70
2022-10-29T20:29:18.371Z,28.00
2022-10-29T20:32:20.933Z,28.80
2022-10-29T20:35:23.631Z,30.03
2022-10-29T20:38:25.835Z,28.52
2022-10-29T20:41:29.604Z,28.55
2022-10-29T20:44:31.941Z,24.25
2022-10-29T20:47:34.580Z,24.05
2022-10-29T20:50:37.143Z,24.70
2022-10-29T20:53:39.716Z,24.33
2022-10-29T20:56:42.084Z,24.45
2022-10-29T20:59:45.439Z,22.77
2022-10-29T21:02:47.820Z,23.30
2022-10-29T21:05:50.514Z,22.67
2022-10-29T21:08:53.101Z,22.77
2022-10-29T21:11:55.777Z,22.70
2022-10-29T21:14:58.077Z,23.35
2022-10-29T21:18:00.717Z,26.00
2022-10-29T21:21:04.085Z,23.33
2022-10-29T21:24:06.903Z,24.42
2022-10-29T21:27:09.980Z,22.23
2022-10-29T21:30:13.288Z,23.40
2022-10-29T21:33:15.634Z,21.35
2022-10-29T21:36:18.898Z,21.37
2022-10-29T21:39:21.133Z,22.92
2022-10-29T21:42:23.724Z,22.67
2022-10-29T21:45:26.041Z,22.42
2022-10-29T21:48:29.384Z,21.90
2022-10-29T21:51:31.660Z,23.13
2022-10-29T21:54:34.205Z,23.05
2022-10-29T21:57:36.452Z,22.55
2022-10-29T22:00:39.073Z,22.33
2022-10-29T22:03:43.704Z,22.67
2022-10-29T22:06:46.009Z,23.67
2022-10-29T22:09:48.534Z,22.17
2022-10-29T22:12:51.229Z,23.10
2022-10-29T22:15:54.546Z,22.48
2022-10-29T22:18:56.755Z,24.50
2022-10-29T22:21:59.310Z,23.77
2022-10-29T22:25:01.550Z,24.05
2022-10-29T22:28:04.294Z,23.85
2022-10-29T22:31:06.858Z,22.42
2022-10-29T22:34:09.393Z,23.42
2022-10-29T22:37:11.702Z,23.33
2022-10-29T22:40:14.248Z,24.50
2022-10-29T22:43:16.553Z,22.42
2022-10-29T22:46:21.141Z,22.77
2022-10-29T22:49:23.386Z,22.20
2022-10-29T22:52:26.025Z,23.47
2022-10-29T22:55:28.273Z,24.00
2022-10-29T22:58:30.843Z,25.23
2022-10-29T23:01:38.845Z,25.33
2022-10-29T23:04:44.855Z,24.23
2022-10-29T23:07:47.484Z,22.70
2022-10-29T23:10:49.967Z,23.40
2022-10-29T23:13:54.106Z,24.20
2022-10-29T23:16:56.666Z,25.48
2022-10-29T23:19:59.013Z,25.08
2022-10-29T23:23:01.546Z,25.33
2022-10-29T23:26:04.286Z,25.25
2022-10-29T23:29:06.814Z,27.70
2022-10-29T23:32:09.026Z,25.70
2022-10-29T23:35:11.520Z,25.98
2022-10-29T23:38:14.364Z,24.90
2022-10-29T23:41:16.848Z,26.40
2022-10-29T23:44:19.079Z,27.23
2022-10-29T23:47:21.549Z,27.52
2022-10-29T23:50:23.809Z,27.83
2022-10-29T23:53:27.292Z,27.53
2022-10-29T23:56:29.515Z,26.65
2022-10-29T23:59:32.049Z,28.42
